Time;durP1;ratioP1;P1;durP2;ratioP2;P2;SDS_P1;SDS_P2;PMS_P1;PMS_P2;Temp;Humidity;BMP_temperature;BMP_pressure;BME280_temperature;BME280_humidity;BME280_pressure;Samples;Min_cycle;Max_cycle;Signal;HPM_P1;HPM_P2
2023/07/06 00:01:40;;;;;;;6.22;1.63;;;;;;;22.72;60.65;100021.69;5119805;28;20047;-71
2023/07/06 00:04:05;;;;;;;6.10;1.70;;;;;;;22.69;60.70;100021.00;5120039;28;20107;-71
2023/07/06 00:06:32;;;;;;;6.67;1.30;;;;;;;22.70;60.82;100022.72;5119719;28;20061;-72
2023/07/06 00:08:58;;;;;;;7.13;1.50;;;;;;;22.74;60.87;100008.16;5119938;28;20464;-71
2023/07/06 00:11:26;;;;;;;7.13;1.50;;;;;;;22.78;60.78;100013.28;5118981;28;20055;-71
2023/07/06 00:13:51;;;;;;;5.67;1.50;;;;;;;22.77;60.84;100006.19;5119809;28;20070;-71
2023/07/06 00:16:16;;;;;;;8.13;1.67;;;;;;;22.79;60.96;100009.63;5119348;28;20106;-72
2023/07/06 00:18:42;;;;;;;7.97;1.60;;;;;;;22.77;60.98;99999.94;5117756;28;20415;-71
2023/07/06 00:21:08;;;;;;;8.20;2.00;;;;;;;22.70;61.07;99998.56;5119465;28;20031;-72
2023/07/06 00:23:33;;;;;;;9.98;1.92;;;;;;;22.69;61.23;99997.72;5101226;28;20020;-72
2023/07/06 00:25:59;;;;;;;8.77;2.73;;;;;;;22.68;61.10;99995.13;5119408;28;20028;-71
2023/07/06 00:28:28;;;;;;;8.60;2.17;;;;;;;22.69;61.17;99999.53;5119582;28;20019;-72
2023/07/06 00:31:01;;;;;;;8.57;1.90;;;;;;;22.69;61.22;100007.59;5100950;28;20664;-71
2023/07/06 00:33:28;;;;;;;9.10;1.80;;;;;;;22.65;61.29;100013.13;5118173;28;20028;-71
2023/07/06 00:35:53;;;;;;;10.37;1.97;;;;;;;22.65;61.44;100018.50;5119564;28;20020;-71
2023/07/06 00:38:22;;;;;;;8.38;1.90;;;;;;;22.64;61.40;100032.88;5100998;28;20035;-72
2023/07/06 00:40:56;;;;;;;6.45;1.85;;;;;;;22.63;61.40;100025.78;5119142;28;20042;-72
2023/07/06 00:43:24;;;;;;;10.73;2.63;;;;;;;22.60;61.56;100039.38;5119013;28;20027;-71
2023/07/06 00:45:53;;;;;;;9.90;1.90;;;;;;;22.58;61.77;100029.69;5118760;28;20050;-72
2023/07/06 00:48:35;;;;;;;7.05;1.70;;;;;;;22.57;61.82;100023.47;5119070;28;20027;-72
2023/07/06 00:51:07;;;;;;;4.70;1.40;;;;;;;22.56;61.92;100013.69;5119237;28;20020;-72
2023/07/06 00:53:39;;;;;;;5.78;1.60;;;;;;;22.56;61.71;100002.94;5117542;28;20023;-72
2023/07/06 00:56:10;;;;;;;5.77;1.50;;;;;;;22.57;61.48;100007.38;5118637;28;20024;-72
2023/07/06 00:58:40;;;;;;;6.55;1.40;;;;;;;22.58;61.78;100010.91;5115832;28;20604;-72
2023/07/06 01:01:08;;;;;;;4.28;1.30;;;;;;;22.55;61.49;99995.84;5118891;28;20024;-72
2023/07/06 01:03:43;;;;;;;6.88;1.55;;;;;;;22.50;61.74;99987.19;5118768;28;20047;-72
2023/07/06 01:06:14;;;;;;;4.97;1.60;;;;;;;22.44;61.81;99977.66;5118762;28;20160;-71
2023/07/06 01:08:40;;;;;;;6.83;1.50;;;;;;;22.39;61.96;99979.72;5118375;28;20387;-72
2023/07/06 01:11:09;;;;;;;5.88;1.88;;;;;;;22.33;62.07;99975.63;5118234;28;20032;-71
2023/07/06 01:13:35;;;;;;;8.95;2.15;;;;;;;22.27;62.19;99973.25;5118683;28;20034;-71
2023/07/06 01:16:18;;;;;;;5.85;1.70;;;;;;;22.22;62.63;99964.63;5118318;28;20019;-71
2023/07/06 01:19:02;;;;;;;6.25;1.70;;;;;;;22.19;62.62;99964.81;5116968;28;20168;-72
2023/07/06 01:21:40;;;;;;;6.20;1.60;;;;;;;22.18;62.57;99969.28;5118529;28;20024;-72
2023/07/06 01:24:30;;;;;;;4.75;1.55;;;;;;;22.22;63.14;99991.44;5118336;28;20053;-72
2023/07/06 01:27:15;;;;;;;7.45;1.60;;;;;;;22.26;62.68;100014.44;5099892;28;20246;-72
2023/07/06 01:30:02;;;;;;;7.70;1.80;;;;;;;22.26;63.41;100019.81;5118059;28;20057;-71
2023/07/06 01:32:32;;;;;;;5.15;2.00;;;;;;;22.17;62.79;100002.44;5118322;28;20115;-72
2023/07/06 01:35:09;;;;;;;4.77;1.73;;;;;;;22.10;63.39;99995.69;5118416;28;20030;-71
2023/07/06 01:37:41;;;;;;;6.07;1.48;;;;;;;22.08;63.00;99982.38;5118113;28;20046;-71
2023/07/06 01:40:09;;;;;;;5.95;1.85;;;;;;;22.07;62.91;99974.41;5117946;28;20024;-72
2023/07/06 01:42:36;;;;;;;7.72;1.70;;;;;;;22.10;63.09;99968.88;5118042;28;20023;-72
2023/07/06 01:45:05;;;;;;;8.30;1.70;;;;;;;22.13;62.89;99971.38;5117614;28;20403;-72
2023/07/06 01:47:34;;;;;;;6.77;1.53;;;;;;;22.17;62.70;99977.44;5117910;28;20043;-72
2023/07/06 01:50:01;;;;;;;5.93;1.63;;;;;;;22.21;62.70;99973.63;5117911;28;20024;-71
2023/07/06 01:52:56;;;;;;;5.65;1.40;;;;;;;22.21;62.60;99965.56;5099605;28;20058;-72
2023/07/06 01:55:28;;;;;;;6.35;1.45;;;;;;;22.22;62.63;99951.22;5117839;28;20495;-71
2023/07/06 01:58:23;;;;;;;6.93;1.55;;;;;;;22.20;62.68;99945.97;5117650;28;20047;-72
2023/07/06 02:00:53;;;;;;;5.87;1.70;;;;;;;22.17;62.62;99937.22;5067761;28;20036;-71
2023/07/06 02:03:19;;;;;;;4.22;1.20;;;;;;;22.15;62.78;99931.06;5104062;28;20019;-71
2023/07/06 02:05:46;;;;;;;5.03;1.23;;;;;;;22.11;62.75;99927.69;5117762;28;20072;-71
2023/07/06 02:08:13;;;;;;;5.90;1.40;;;;;;;22.08;62.96;99920.72;5099103;28;20020;-71
2023/07/06 02:10:38;;;;;;;5.53;1.45;;;;;;;22.08;62.67;99923.41;5117129;28;20077;-71
2023/07/06 02:13:04;;;;;;;5.70;1.30;;;;;;;22.11;62.91;99926.84;5117458;28;20020;-71
2023/07/06 02:15:31;;;;;;;6.20;1.30;;;;;;;22.12;62.98;99918.69;5117296;28;20015;-71
2023/07/06 02:17:56;;;;;;;5.20;1.30;;;;;;;22.12;62.75;99916.03;5114840;28;20030;-72
2023/07/06 02:20:23;;;;;;;4.37;1.20;;;;;;;22.11;62.85;99910.75;5099055;28;20016;-71
2023/07/06 02:22:49;;;;;;;6.43;1.55;;;;;;;22.08;62.83;99893.91;5117469;28;20034;-71
2023/07/06 02:25:14;;;;;;;6.43;1.50;;;;;;;22.08;63.00;99885.84;5117165;28;20399;-71
2023/07/06 02:27:40;;;;;;;8.18;1.58;;;;;;;22.06;62.97;99893.13;5116990;28;20561;-71
2023/07/06 02:30:06;;;;;;;7.53;1.80;;;;;;;22.04;63.27;99884.28;5117206;28;20570;-71
2023/07/06 02:32:32;;;;;;;6.63;1.67;;;;;;;22.04;63.02;99891.47;5117130;28;20024;-71
2023/07/06 02:34:57;;;;;;;6.67;1.67;;;;;;;22.03;62.97;99879.03;5117289;28;20110;-71
2023/07/06 02:37:23;;;;;;;6.82;1.83;;;;;;;22.01;63.10;99868.38;5117095;28;20149;-72
2023/07/06 02:39:50;;;;;;;4.67;1.30;;;;;;;22.00;63.35;99866.66;5117322;28;20019;-71
2023/07/06 02:42:16;;;;;;;5.60;2.00;;;;;;;21.97;63.43;99866.84;5116878;28;20035;-71
2023/07/06 02:44:43;;;;;;;7.03;1.70;;;;;;;21.92;63.54;99890.38;5117288;28;20543;-71
2023/07/06 02:47:09;;;;;;;8.38;2.25;;;;;;;21.91;63.85;99894.00;5103487;28;20092;-72
2023/07/06 02:49:34;;;;;;;9.57;2.10;;;;;;;21.85;63.94;99899.72;5116888;28;20031;-72
2023/07/06 02:52:02;;;;;;;6.22;1.80;;;;;;;21.78;64.08;99900.06;5117078;28;20073;-72
2023/07/06 02:54:28;;;;;;;5.57;1.80;;;;;;;21.75;64.01;99894.88;5116987;28;20028;-71
2023/07/06 02:56:56;;;;;;;7.25;1.70;;;;;;;21.76;64.01;99895.75;5100638;28;20043;-71
2023/07/06 02:59:21;;;;;;;4.95;1.65;;;;;;;21.77;64.31;99897.47;5121007;28;20023;-71
2023/07/06 03:01:47;;;;;;;7.07;1.53;;;;;;;21.74;64.34;99909.22;5102803;28;20053;-71
2023/07/06 03:04:12;;;;;;;7.57;1.88;;;;;;;21.67;64.37;99905.16;5121107;28;20053;-71
2023/07/06 03:06:38;;;;;;;4.90;1.67;;;;;;;21.59;64.64;99902.03;5121027;28;20047;-71
2023/07/06 03:09:05;;;;;;;7.75;1.83;;;;;;;21.55;65.08;99906.69;5121156;28;20045;-71
2023/07/06 03:11:33;;;;;;;7.33;1.70;;;;;;;21.54;64.81;99907.63;5116131;28;20028;-71
2023/07/06 03:14:00;;;;;;;5.38;1.60;;;;;;;21.58;64.88;99908.31;5120872;28;20023;-71
2023/07/06 03:16:26;;;;;;;5.85;1.40;;;;;;;21.59;64.52;99894.84;5120874;28;20053;-71
2023/07/06 03:18:52;;;;;;;5.85;1.67;;;;;;;21.60;64.72;99885.84;5102399;28;20100;-71
2023/07/06 03:21:17;;;;;;;5.33;1.70;;;;;;;21.61;64.72;99878.69;5120865;28;20027;-72
2023/07/06 03:23:43;;;;;;;6.00;1.60;;;;;;;21.56;64.78;99883.44;5120774;28;20020;-72
2023/07/06 03:26:09;;;;;;;4.43;1.53;;;;;;;21.50;64.87;99874.78;5120800;28;20536;-72
2023/07/06 03:28:35;;;;;;;5.80;1.60;;;;;;;21.48;64.86;99868.66;5120638;28;20340;-72
2023/07/06 03:31:01;;;;;;;5.78;1.50;;;;;;;21.46;64.64;99862.53;5120518;28;20440;-72
2023/07/06 03:33:27;;;;;;;4.70;1.40;;;;;;;21.44;64.67;99864.44;5120680;28;20062;-71
2023/07/06 03:35:53;;;;;;;6.93;1.88;;;;;;;21.44;64.81;99859.06;5120630;28;20066;-71
2023/07/06 03:38:25;;;;;;;7.53;1.80;;;;;;;21.40;65.07;99852.16;5120577;28;20028;-71
2023/07/06 03:40:51;;;;;;;10.45;2.75;;;;;;;21.35;65.15;99854.25;5120364;28;20016;-72
2023/07/06 03:43:17;;;;;;;9.30;2.58;;;;;;;21.29;65.20;99849.19;5120313;28;20031;-72
2023/07/06 03:45:46;;;;;;;8.07;2.40;;;;;;;21.21;64.98;99846.94;5120237;28;20024;-72
2023/07/06 03:48:12;;;;;;;6.18;1.80;;;;;;;21.18;65.38;99849.78;5120345;28;20124;-72
2023/07/06 03:50:37;;;;;;;6.60;1.77;;;;;;;21.15;65.25;99848.16;5120290;28;20035;-71
2023/07/06 03:53:03;;;;;;;5.93;1.73;;;;;;;21.14;65.54;99846.44;5120281;28;20031;-71
2023/07/06 03:55:28;;;;;;;5.90;1.60;;;;;;;21.13;65.58;99843.84;5119662;28;20023;-72
2023/07/06 03:57:54;;;;;;;8.03;1.77;;;;;;;21.11;65.47;99840.38;5101400;28;20402;-72
2023/07/06 04:00:21;;;;;;;6.13;2.00;;;;;;;21.06;65.42;99844.19;5120142;28;20028;-72
2023/07/06 04:02:48;;;;;;;6.30;1.63;;;;;;;21.00;65.72;99838.28;5120175;28;20026;-71
2023/07/06 04:05:16;;;;;;;6.68;1.85;;;;;;;20.96;65.52;99826.03;5120125;28;20032;-72
2023/07/06 04:07:42;;;;;;;6.35;1.80;;;;;;;20.95;65.76;99825.16;5119815;28;20076;-71
2023/07/06 04:10:08;;;;;;;5.13;1.73;;;;;;;20.93;65.50;99827.94;5101441;28;20107;-71
2023/07/06 04:12:37;;;;;;;9.00;1.97;;;;;;;20.93;65.39;99832.41;5119796;28;20028;-72
2023/07/06 04:15:05;;;;;;;9.57;2.10;;;;;;;20.93;65.48;99833.28;5119795;28;20016;-72
2023/07/06 04:17:31;;;;;;;6.05;1.95;;;;;;;20.92;65.32;99831.56;5100763;28;20036;-72
2023/07/06 04:19:57;;;;;;;6.20;1.90;;;;;;;20.91;65.55;99823.59;5119945;28;20055;-71
2023/07/06 04:22:22;;;;;;;5.83;1.77;;;;;;;20.86;65.41;99818.50;5119710;28;20115;-71
2023/07/06 04:24:48;;;;;;;4.47;1.70;;;;;;;20.86;65.46;99810.47;5119881;28;20082;-71
2023/07/06 04:27:13;;;;;;;5.93;1.57;;;;;;;20.82;65.53;99808.91;5119522;28;20035;-71
2023/07/06 04:29:38;;;;;;;11.30;2.60;;;;;;;20.82;65.51;99802.69;5119470;28;20055;-71
2023/07/06 04:32:04;;;;;;;5.53;1.50;;;;;;;20.82;65.50;99798.19;5119508;28;20032;-72
2023/07/06 04:34:30;;;;;;;5.90;1.60;;;;;;;20.83;65.71;99799.06;5101374;28;20421;-72
2023/07/06 04:36:56;;;;;;;5.20;1.70;;;;;;;20.82;65.50;99792.00;5119370;28;20015;-71
2023/07/06 04:39:22;;;;;;;7.07;1.80;;;;;;;20.80;65.56;99784.03;5119692;28;20581;-72
2023/07/06 04:41:48;;;;;;;7.00;1.70;;;;;;;20.79;65.32;99788.53;5119228;28;20510;-72
2023/07/06 04:44:14;;;;;;;6.93;1.73;;;;;;;20.82;65.78;99800.88;5119393;28;20015;-72
2023/07/06 04:46:39;;;;;;;5.37;1.40;;;;;;;20.84;65.64;99796.28;5100885;28;20552;-72
2023/07/06 04:49:05;;;;;;;6.47;1.70;;;;;;;20.82;65.50;99798.19;5119391;28;20019;-72
2023/07/06 04:51:31;;;;;;;9.50;1.70;;;;;;;20.82;65.61;99803.53;5118825;28;20059;-71
2023/07/06 04:53:58;;;;;;;8.18;1.88;;;;;;;20.83;65.83;99802.59;5100752;28;20023;-72
2023/07/06 04:56:24;;;;;;;5.43;1.50;;;;;;;20.82;65.58;99806.22;5100293;28;20039;-71
2023/07/06 04:58:49;;;;;;;6.53;1.70;;;;;;;20.83;65.85;99802.59;5119091;28;20015;-71
2023/07/06 05:01:14;;;;;;;6.67;1.80;;;;;;;20.82;65.96;99803.53;5118922;28;20024;-71
2023/07/06 05:03:40;;;;;;;5.43;1.55;;;;;;;20.82;65.74;99803.53;5118890;28;20560;-70
2023/07/06 05:06:12;;;;;;;7.10;2.07;;;;;;;20.96;65.55;99804.63;5100594;28;20035;-70
2023/07/06 05:08:39;;;;;;;5.45;1.90;;;;;;;21.15;64.93;99799.09;5119069;28;20020;-70
2023/07/06 05:11:05;;;;;;;6.40;2.00;;;;;;;21.34;64.80;99798.91;5118393;28;20031;-70
2023/07/06 05:13:31;;;;;;;8.57;2.30;;;;;;;21.52;63.94;99802.38;5118796;28;20068;-70
2023/07/06 05:15:57;;;;;;;7.67;2.43;;;;;;;21.70;63.88;99799.59;5118449;28;20124;-70
2023/07/06 05:18:22;;;;;;;8.25;2.42;;;;;;;21.86;63.24;99804.97;5115778;28;20024;-69
2023/07/06 05:20:49;;;;;;;8.53;2.00;;;;;;;22.00;63.01;99806.81;5118664;28;20027;-69
2023/07/06 05:23:17;;;;;;;8.13;2.00;;;;;;;22.11;62.87;99806.19;5118427;28;20029;-69
2023/07/06 05:25:42;;;;;;;6.60;2.00;;;;;;;22.16;62.78;99812.13;5118334;28;20031;-69
2023/07/06 05:28:11;;;;;;;6.60;2.20;;;;;;;22.25;62.77;99816.94;5118115;28;20503;-69
2023/07/06 05:30:42;;;;;;;5.88;1.83;;;;;;;22.35;62.61;99814.56;5102719;28;20031;-68
2023/07/06 05:33:08;;;;;;;6.70;1.92;;;;;;;22.45;62.31;99817.53;5117433;28;20032;-68
2023/07/06 05:35:33;;;;;;;7.03;2.00;;;;;;;22.56;62.04;99816.91;5117824;28;20020;-68
2023/07/06 05:38:02;;;;;;;6.32;2.00;;;;;;;22.60;62.03;99827.38;5118149;28;20045;-68
2023/07/06 05:40:27;;;;;;;6.43;2.07;;;;;;;22.66;62.00;99815.38;5117879;28;20047;-68
2023/07/06 05:42:57;;;;;;;8.15;2.05;;;;;;;22.73;61.84;99823.91;5118189;28;20028;-68
2023/07/06 05:45:23;;;;;;;8.33;2.10;;;;;;;22.80;61.62;99820.75;5099504;28;20164;-68
2023/07/06 05:47:48;;;;;;;10.25;2.17;;;;;;;22.84;61.46;99824.13;5099211;28;20028;-69
2023/07/06 05:50:14;;;;;;;8.10;1.90;;;;;;;22.90;61.53;99820.19;5117586;28;20025;-68
2023/07/06 05:52:40;;;;;;;8.27;1.83;;;;;;;22.96;61.45;99821.63;5097123;28;20022;-70
2023/07/06 05:55:06;;;;;;;6.47;1.90;;;;;;;23.02;61.38;99829.28;5112285;28;20024;-70
2023/07/06 05:57:31;;;;;;;10.93;2.00;;;;;;;23.05;61.43;99831.81;5117041;28;20040;-70
2023/07/06 05:59:57;;;;;;;6.87;2.13;;;;;;;23.14;61.23;99825.81;5115912;28;20063;-70
2023/07/06 06:02:22;;;;;;;9.57;2.00;;;;;;;23.25;61.11;99827.84;5109694;28;20024;-69
2023/07/06 06:04:51;;;;;;;7.70;2.10;;;;;;;23.39;60.85;99826.97;5117605;28;20019;-69
2023/07/06 06:07:19;;;;;;;7.53;2.30;;;;;;;23.55;60.65;99828.66;5117673;28;20031;-69
2023/07/06 06:09:46;;;;;;;6.80;2.10;;;;;;;23.65;60.62;99832.47;5099055;28;20113;-69
2023/07/06 06:12:18;;;;;;;6.55;2.20;;;;;;;23.77;60.12;99834.34;5099640;28;20023;-69
2023/07/06 06:14:44;;;;;;;6.72;1.95;;;;;;;23.89;59.87;99839.84;5114333;28;20028;-67
2023/07/06 06:17:09;;;;;;;7.53;1.73;;;;;;;23.92;59.89;99839.66;5112069;28;20141;-70
2023/07/06 06:19:40;;;;;;;7.27;1.80;;;;;;;23.97;59.60;99844.72;5097641;28;20035;-70
2023/07/06 06:22:09;;;;;;;5.78;2.10;;;;;;;24.03;59.87;99842.53;5098670;28;20019;-70
2023/07/06 06:24:35;;;;;;;6.03;2.20;;;;;;;24.12;59.65;99838.34;5117154;28;20487;-70
2023/07/06 06:27:00;;;;;;;9.15;2.20;;;;;;;24.23;59.45;99842.97;5098510;28;20391;-70
2023/07/06 06:29:27;;;;;;;7.07;2.17;;;;;;;24.33;59.14;99836.00;5116732;28;20046;-69
2023/07/06 06:31:53;;;;;;;6.20;2.15;;;;;;;24.45;58.84;99836.13;5116161;28;20023;-69
2023/07/06 06:34:18;;;;;;;8.63;1.77;;;;;;;24.51;59.00;99838.41;5116939;28;20031;-69
2023/07/06 06:36:43;;;;;;;5.33;2.00;;;;;;;24.55;58.62;99837.22;5116674;28;20079;-69
2023/07/06 06:39:09;;;;;;;5.90;1.70;;;;;;;24.62;58.35;99838.50;5116826;28;20030;-69
2023/07/06 06:41:39;;;;;;;7.38;2.05;;;;;;;24.74;58.32;99835.94;5116959;28;20065;-69
2023/07/06 06:44:04;;;;;;;5.00;1.88;;;;;;;24.89;58.09;99842.94;5085559;28;20027;-68
2023/07/06 06:46:30;;;;;;;8.43;1.90;;;;;;;25.07;57.92;99842.59;5116900;28;20030;-69
2023/07/06 06:48:55;;;;;;;5.53;2.03;;;;;;;25.21;57.77;99844.31;5116852;28;20027;-69
2023/07/06 06:51:21;;;;;;;9.48;2.10;;;;;;;25.36;57.34;99850.41;5098852;28;20050;-70
2023/07/06 06:53:46;;;;;;;8.13;1.87;;;;;;;25.54;57.06;99836.59;5116710;28;20419;-69
2023/07/06 06:56:12;;;;;;;7.80;2.20;;;;;;;25.68;56.70;99843.66;5116675;28;20051;-69
2023/07/06 06:58:38;;;;;;;5.87;2.07;;;;;;;25.80;56.02;99849.00;5117135;28;20049;-70
2023/07/06 07:01:07;;;;;;;8.02;2.30;;;;;;;25.87;55.83;99845.81;5116968;28;20353;-69
2023/07/06 07:03:34;;;;;;;5.93;1.90;;;;;;;25.95;55.65;99856.91;5098794;28;20471;-69
2023/07/06 07:06:12;;;;;;;9.15;2.25;;;;;;;26.09;55.19;99854.00;5116873;28;21233;-69
2023/07/06 07:08:43;;;;;;;8.80;2.35;;;;;;;26.30;55.01;99855.25;5117027;28;20072;-70
2023/07/06 07:11:10;;;;;;;12.13;2.00;;;;;;;26.47;54.49;99862.03;5116479;28;20051;-70
2023/07/06 07:13:37;;;;;;;7.20;2.38;;;;;;;26.50;53.86;99859.09;5116369;28;20777;-69
2023/07/06 07:16:04;;;;;;;8.07;2.20;;;;;;;26.51;54.46;99861.66;5111557;28;20088;-69
2023/07/06 07:18:29;;;;;;;10.95;2.40;;;;;;;26.64;53.66;99861.56;5116625;28;20054;-69
2023/07/06 07:20:55;;;;;;;6.35;2.40;;;;;;;26.69;53.65;99861.19;5116422;28;20023;-69
2023/07/06 07:23:23;;;;;;;7.77;2.60;;;;;;;26.81;53.44;99864.78;5098384;28;20040;-69
2023/07/06 07:25:48;;;;;;;10.38;2.63;;;;;;;26.92;53.11;99864.84;5114324;28;20032;-69
2023/07/06 07:28:17;;;;;;;10.93;2.17;;;;;;;27.00;53.04;99868.75;5116457;28;20031;-69
2023/07/06 07:30:54;;;;;;;8.57;2.10;;;;;;;27.17;52.72;99865.56;5096345;28;20020;-69
2023/07/06 07:33:19;;;;;;;8.43;2.40;;;;;;;27.34;52.03;99871.44;5116876;28;20069;-69
2023/07/06 07:35:45;;;;;;;8.53;2.33;;;;;;;27.53;51.89;99876.25;5116140;28;20084;-69
2023/07/06 07:38:10;;;;;;;12.93;2.63;;;;;;;27.71;51.67;99873.88;5116936;28;20023;-69
2023/07/06 07:40:36;;;;;;;9.05;2.10;;;;;;;27.93;50.96;99874.78;5116097;28;20123;-70
2023/07/06 07:43:01;;;;;;;7.20;2.00;;;;;;;27.87;50.54;99875.31;5118977;28;20035;-70
2023/07/06 07:45:27;;;;;;;7.77;2.50;;;;;;;27.70;50.14;99871.28;5119639;28;20456;-70
2023/07/06 07:47:52;;;;;;;9.10;2.80;;;;;;;27.37;50.21;99871.22;5120355;28;20023;-69
2023/07/06 07:50:17;;;;;;;7.50;1.93;;;;;;;27.14;50.82;99882.03;5101898;28;20059;-70
2023/07/06 07:52:43;;;;;;;11.90;2.00;;;;;;;27.00;51.41;99874.16;5120346;28;20034;-69
2023/07/06 07:55:10;;;;;;;7.53;2.23;;;;;;;26.90;51.15;99874.91;5119687;28;20501;-70
2023/07/06 07:57:37;;;;;;;7.97;2.10;;;;;;;26.81;51.21;99870.19;5119692;28;20107;-69
2023/07/06 08:00:06;;;;;;;11.73;2.20;;;;;;;26.83;51.04;99870.91;5119836;28;20057;-69
2023/07/06 08:02:32;;;;;;;8.48;2.30;;;;;;;26.96;50.94;99859.19;5120370;28;20084;-69
2023/07/06 08:05:01;;;;;;;8.70;2.30;;;;;;;27.14;50.72;99856.84;5119750;28;20031;-69
2023/07/06 08:07:27;;;;;;;6.40;2.05;;;;;;;27.39;50.32;99861.13;5119829;28;20050;-69
2023/07/06 08:09:52;;;;;;;8.90;2.17;;;;;;;27.61;49.94;99864.78;5119519;28;20563;-70
2023/07/06 08:12:20;;;;;;;8.60;2.33;;;;;;;27.73;49.67;99855.66;5119497;28;20051;-69
2023/07/06 08:14:45;;;;;;;6.15;2.05;;;;;;;27.99;49.59;99858.03;5119603;28;20088;-69
2023/07/06 08:17:12;;;;;;;7.77;1.70;;;;;;;28.26;49.68;99855.88;5119162;28;20027;-70
2023/07/06 08:19:38;;;;;;;6.93;1.92;;;;;;;28.54;49.29;99851.63;5119764;28;20024;-70
2023/07/06 08:22:04;;;;;;;6.93;1.90;;;;;;;28.84;48.77;99849.97;5119624;28;20032;-69
2023/07/06 08:24:29;;;;;;;9.68;2.03;;;;;;;28.89;47.93;99849.56;5119788;28;20066;-70
2023/07/06 08:26:56;;;;;;;6.33;1.83;;;;;;;28.98;48.00;99850.59;5119212;28;20051;-70
2023/07/06 08:29:22;;;;;;;6.70;2.10;;;;;;;29.03;47.88;99845.63;5119425;28;20023;-70
2023/07/06 08:31:49;;;;;;;6.35;1.88;;;;;;;29.18;47.78;99830.69;5116468;28;20059;-70
2023/07/06 08:34:16;;;;;;;5.93;2.03;;;;;;;29.31;47.29;99835.03;5119712;28;20028;-70
2023/07/06 08:36:43;;;;;;;6.75;1.92;;;;;;;29.43;47.31;99833.09;5118549;28;20937;-70
2023/07/06 08:39:09;;;;;;;8.03;2.03;;;;;;;29.56;46.69;99830.97;5119573;28;20023;-70
2023/07/06 08:41:38;;;;;;;7.88;2.10;;;;;;;29.63;46.53;99823.97;5119023;28;20054;-70
2023/07/06 08:44:07;;;;;;;6.47;1.83;;;;;;;29.68;46.13;99822.72;5119290;28;20081;-70
2023/07/06 08:46:40;;;;;;;7.65;1.88;;;;;;;29.72;46.17;99826.84;5101513;28;20460;-70
2023/07/06 08:49:33;;;;;;;5.13;1.87;;;;;;;29.77;45.93;99819.97;5119603;28;20483;-70
2023/07/06 08:52:03;;;;;;;6.15;1.73;;;;;;;29.93;45.26;99821.28;5090267;28;20495;-70
2023/07/06 08:54:30;;;;;;;6.03;1.88;;;;;;;29.93;45.62;99818.56;5118229;28;20036;-70
2023/07/06 08:56:57;;;;;;;7.72;2.17;;;;;;;30.00;44.88;99818.84;5118104;28;20120;-70
2023/07/06 08:59:25;;;;;;;7.25;1.98;;;;;;;29.98;45.26;99821.69;5118736;28;20051;-70
2023/07/06 09:01:52;;;;;;;8.00;1.67;;;;;;;30.07;44.95;99825.44;5108357;28;20053;-70
2023/07/06 09:04:19;;;;;;;7.88;2.17;;;;;;;30.05;44.24;99822.03;5118851;28;20031;-70
2023/07/06 09:06:53;;;;;;;5.20;1.90;;;;;;;30.00;44.52;99819.69;5118489;28;20027;-70
2023/07/06 09:09:19;;;;;;;7.07;1.83;;;;;;;30.18;44.46;99813.56;5118601;28;20042;-70
2023/07/06 09:11:47;;;;;;;6.90;1.60;;;;;;;30.39;44.25;99812.53;5118359;28;20032;-70
2023/07/06 09:14:13;;;;;;;7.18;2.08;;;;;;;30.54;42.86;99815.66;5118795;28;20053;-70
2023/07/06 09:16:58;;;;;;;6.90;1.90;;;;;;;30.51;43.37;99811.38;5118129;28;20032;-70
2023/07/06 09:19:25;;;;;;;6.40;2.00;;;;;;;30.62;43.04;99808.50;5116865;28;20077;-70
2023/07/06 09:21:56;;;;;;;8.63;2.17;;;;;;;30.73;43.07;99809.31;5118531;28;20024;-70
2023/07/06 09:24:27;;;;;;;6.80;2.13;;;;;;;30.88;42.62;99804.28;5117843;28;20077;-70
2023/07/06 09:26:57;;;;;;;7.18;1.92;;;;;;;31.00;42.02;99800.34;5099814;28;20090;-70
2023/07/06 09:29:29;;;;;;;6.43;2.17;;;;;;;31.01;41.77;99806.66;5099826;28;20083;-70
2023/07/06 09:32:16;;;;;;;7.35;2.20;;;;;;;30.94;41.59;99798.22;5118056;28;20024;-70
2023/07/06 09:34:44;;;;;;;7.88;2.20;;;;;;;30.97;41.39;99805.22;5117902;28;20028;-70
2023/07/06 09:37:14;;;;;;;6.57;2.27;;;;;;;31.03;40.73;99799.19;5118058;28;20073;-70
2023/07/06 09:39:41;;;;;;;7.65;2.08;;;;;;;31.17;40.70;99798.66;5099647;28;20028;-70
2023/07/06 09:42:12;;;;;;;9.23;2.22;;;;;;;31.22;41.25;99792.81;5117860;28;20093;-70
2023/07/06 09:44:37;;;;;;;7.90;2.40;;;;;;;31.21;41.38;99791.94;5118155;28;20027;-70
2023/07/06 09:47:11;;;;;;;8.40;2.43;;;;;;;31.12;41.12;99790.13;5117760;28;20102;-70
2023/07/06 09:49:44;;;;;;;16.88;2.55;;;;;;;31.18;40.28;99786.78;5117480;28;20031;-70
2023/07/06 09:52:12;;;;;;;6.75;2.50;;;;;;;31.27;40.21;99781.50;5117290;28;20051;-70
2023/07/06 09:55:10;;;;;;;12.07;2.70;;;;;;;31.31;40.44;99774.72;5117121;28;20024;-70
2023/07/06 09:57:35;;;;;;;9.13;2.25;;;;;;;31.49;40.02;99780.19;5114012;28;20050;-70
2023/07/06 10:00:03;;;;;;;6.05;2.03;;;;;;;31.64;39.88;99777.78;5099526;28;20395;-70
2023/07/06 10:03:25;;;;;;;7.25;2.20;;;;;;;31.59;39.33;99778.25;5118000;28;20024;-70
2023/07/06 10:06:04;;;;;;;5.23;2.10;;;;;;;31.67;39.57;99773.88;5058325;28;20036;-70
2023/07/06 10:08:45;;;;;;;11.40;2.50;;;;;;;31.75;37.90;99780.28;5105414;28;20023;-70
2023/07/06 10:11:34;;;;;;;7.70;2.20;;;;;;;31.64;38.21;99778.63;5117223;28;20114;-71
2023/07/06 10:14:20;;;;;;;6.10;2.10;;;;;;;31.62;37.99;99777.06;5117567;28;20110;-70
2023/07/06 10:17:12;;;;;;;7.07;2.22;;;;;;;31.67;38.13;99780.16;5097815;28;20127;-70
2023/07/06 10:19:56;;;;;;;7.83;2.13;;;;;;;31.63;37.83;99784.22;5089359;28;20503;-70
2023/07/06 10:23:06;;;;;;;10.95;2.00;;;;;;;31.67;38.45;99779.34;5117705;28;20019;-71
2023/07/06 10:26:00;;;;;;;8.23;2.45;;;;;;;31.88;38.30;99776.31;5083185;28;20118;-71
2023/07/06 10:28:33;;;;;;;10.13;2.13;;;;;;;32.10;38.41;99785.00;5117202;28;20031;-71
2023/07/06 10:31:03;;;;;;;8.43;2.40;;;;;;;32.18;38.40;99782.31;5114582;28;20038;-71
2023/07/06 10:33:43;;;;;;;9.50;2.50;;;;;;;32.28;37.93;99783.09;5117314;28;20038;-71
2023/07/06 10:36:12;;;;;;;7.32;2.10;;;;;;;32.32;38.14;99779.06;5098735;28;20055;-71
2023/07/06 10:38:37;;;;;;;11.65;2.63;;;;;;;32.25;37.43;99769.78;5117078;28;20027;-71
2023/07/06 10:41:09;;;;;;;7.17;2.30;;;;;;;32.01;37.88;99782.22;5117096;28;20065;-71
2023/07/06 10:43:37;;;;;;;6.85;2.22;;;;;;;31.89;38.46;99775.28;5117063;28;20016;-71
2023/07/06 10:46:27;;;;;;;8.73;2.42;;;;;;;31.63;38.55;99776.06;5116847;28;20027;-71
2023/07/06 10:48:57;;;;;;;8.07;2.45;;;;;;;31.68;38.77;99771.00;5116914;28;20019;-71
2023/07/06 10:51:25;;;;;;;8.85;2.30;;;;;;;31.81;38.92;99773.34;5116897;28;20027;-71
2023/07/06 10:54:17;;;;;;;7.87;2.70;;;;;;;31.99;39.06;99773.34;5117209;28;20068;-71
2023/07/06 10:56:47;;;;;;;7.95;2.28;;;;;;;32.29;38.64;99765.72;5116311;28;20492;-71
2023/07/06 10:59:23;;;;;;;5.55;2.20;;;;;;;32.50;38.58;99764.53;5107133;28;20031;-71
2023/07/06 11:02:07;;;;;;;10.43;2.80;;;;;;;32.67;37.37;99762.72;5116964;28;20023;-71
2023/07/06 11:04:41;;;;;;;8.60;2.42;;;;;;;32.72;37.06;99745.91;5116930;28;20058;-71
2023/07/06 11:07:12;;;;;;;8.20;2.60;;;;;;;32.82;37.24;99757.50;5098639;28;20024;-71
2023/07/06 11:10:19;;;;;;;7.45;2.35;;;;;;;32.91;37.08;99748.38;5116176;28;20111;-71
2023/07/06 11:12:55;;;;;;;7.13;2.42;;;;;;;33.11;37.34;99756.28;5116699;28;20035;-71
2023/07/06 11:15:44;;;;;;;6.43;2.42;;;;;;;33.20;37.22;99744.38;5116681;28;20034;-71
2023/07/06 11:18:18;;;;;;;8.60;2.45;;;;;;;33.27;36.64;99747.28;5109368;28;20055;-71
2023/07/06 11:20:50;;;;;;;6.57;2.40;;;;;;;33.10;36.54;99749.13;5120853;28;20024;-71
2023/07/06 11:23:19;;;;;;;6.78;2.55;;;;;;;33.17;36.42;99750.19;5102624;28;20023;-71
2023/07/06 11:25:47;;;;;;;6.50;2.42;;;;;;;33.22;35.77;99745.06;5120299;28;20068;-71
2023/07/06 11:28:14;;;;;;;8.52;2.35;;;;;;;33.21;35.97;99740.63;5120820;28;20031;-71
2023/07/06 11:30:51;;;;;;;5.95;2.35;;;;;;;33.16;35.01;99737.56;5081864;28;20032;-71
2023/07/06 11:33:34;;;;;;;7.20;2.60;;;;;;;33.14;34.40;99739.56;5102522;28;20026;-71
2023/07/06 11:36:17;;;;;;;9.73;2.50;;;;;;;32.95;34.22;99743.44;5120137;28;20124;-71
2023/07/06 11:38:57;;;;;;;9.93;2.60;;;;;;;32.92;33.34;99747.38;5102254;28;20045;-71
2023/07/06 11:41:53;;;;;;;8.05;2.28;;;;;;;32.89;33.64;99739.50;5120162;28;20020;-71
2023/07/06 11:44:42;;;;;;;7.13;2.40;;;;;;;32.98;33.76;99734.09;5110590;28;20023;-71